AUA26K LOWW-EDDS
Flight info
| Callsign | AUA26K |
|---|---|
| Flight time | 1h 13m |
| Altitude | 30000 |
| Route | LUGEM DCT KIRDI DCT EBEDA L173 MAH/N0365F240 L173 DODIL T127 TEKSI TEKSI1W |
| Aircraft | A320/M-SDE3FGHIRWY/LB1 |
Departure
| Time | 2026-04-25 12:02 |
|---|---|
| Airport | Vienna International Airport (LOWW) |
Arrival
| Time | 2026-04-25 13:15 |
|---|---|
| Airport | Stuttgart Airport (EDDS) |
| Time | Latitude | Longitude | Altitude | Speed | Heading |
|---|---|---|---|---|---|
| 2026-04-25 11:30 | 48.11709 | 16.56790 | 610 ft | 0 kts | 25° |
| 2026-04-25 11:51 | 48.11694 | 16.56780 | 609 ft | 4 kts | 26° |
| 2026-04-25 11:51 | 48.11670 | 16.56761 | 625 ft | 4 kts | 33° |
| 2026-04-25 11:52 | 48.11651 | 16.56736 | 617 ft | 4 kts | 60° |
| 2026-04-25 11:52 | 48.11647 | 16.56711 | 620 ft | 0 kts | 116° |
| 2026-04-25 11:56 | 48.11646 | 16.56713 | 609 ft | 2 kts | 116° |
| 2026-04-25 11:56 | 48.11623 | 16.56785 | 613 ft | 9 kts | 115° |
| 2026-04-25 11:56 | 48.11621 | 16.56793 | 609 ft | 1 kts | 115° |
| 2026-04-25 11:57 | 48.11597 | 16.56867 | 614 ft | 11 kts | 115° |
| 2026-04-25 11:57 | 48.11567 | 16.56962 | 614 ft | 9 kts | 116° |
| 2026-04-25 11:57 | 48.11530 | 16.57073 | 620 ft | 14 kts | 116° |
| 2026-04-25 11:57 | 48.11490 | 16.57194 | 609 ft | 12 kts | 116° |
| 2026-04-25 11:58 | 48.11455 | 16.57304 | 621 ft | 11 kts | 115° |
| 2026-04-25 11:58 | 48.11411 | 16.57384 | 619 ft | 9 kts | 160° |
| 2026-04-25 11:58 | 48.11354 | 16.57364 | 619 ft | 8 kts | 205° |
| 2026-04-25 11:58 | 48.11309 | 16.57331 | 618 ft | 7 kts | 206° |
| 2026-04-25 11:59 | 48.11241 | 16.57280 | 624 ft | 14 kts | 206° |
| 2026-04-25 11:59 | 48.11167 | 16.57227 | 620 ft | 8 kts | 206° |
| 2026-04-25 11:59 | 48.11113 | 16.57187 | 616 ft | 10 kts | 206° |
| 2026-04-25 12:00 | 48.11070 | 16.57056 | 622 ft | 3 kts | 295° |
| 2026-04-25 12:01 | 48.11076 | 16.57037 | 616 ft | 12 kts | 294° |
| 2026-04-25 12:01 | 48.11228 | 16.56566 | 613 ft | 88 kts | 296° |
| 2026-04-25 12:01 | 48.11595 | 16.55441 | 613 ft | 147 kts | 296° |
| 2026-04-25 12:01 | 48.12050 | 16.54023 | 1100 ft | 152 kts | 290° |
| 2026-04-25 12:02 | 48.11873 | 16.50855 | 2480 ft | 163 kts | 261° |
| 2026-04-25 12:02 | 48.11664 | 16.49083 | 2801 ft | 183 kts | 263° |
| 2026-04-25 12:02 | 48.11467 | 16.47085 | 3154 ft | 208 kts | 262° |
| 2026-04-25 12:03 | 48.11141 | 16.44815 | 3621 ft | 234 kts | 258° |
| 2026-04-25 12:03 | 48.10716 | 16.42334 | 4169 ft | 257 kts | 258° |
| 2026-04-25 12:03 | 48.10262 | 16.39741 | 5156 ft | 257 kts | 257° |
| 2026-04-25 12:03 | 48.09830 | 16.37128 | 6122 ft | 260 kts | 264° |
| 2026-04-25 12:04 | 48.09791 | 16.34452 | 7011 ft | 262 kts | 272° |
| 2026-04-25 12:04 | 48.09835 | 16.31689 | 7976 ft | 264 kts | 274° |
| 2026-04-25 12:04 | 48.09895 | 16.28956 | 8857 ft | 268 kts | 274° |
| 2026-04-25 12:04 | 48.09957 | 16.26154 | 9721 ft | 272 kts | 274° |
| 2026-04-25 12:05 | 48.10020 | 16.23277 | 10395 ft | 285 kts | 274° |
| 2026-04-25 12:05 | 48.10121 | 16.20202 | 10736 ft | 306 kts | 279° |
| 2026-04-25 12:05 | 48.10428 | 16.16996 | 11380 ft | 315 kts | 280° |
| 2026-04-25 12:05 | 48.10734 | 16.13718 | 12146 ft | 320 kts | 279° |
| 2026-04-25 12:06 | 48.11032 | 16.10433 | 12915 ft | 324 kts | 279° |
| 2026-04-25 12:06 | 48.11334 | 16.07038 | 13693 ft | 327 kts | 279° |
| 2026-04-25 12:06 | 48.11628 | 16.03691 | 14447 ft | 329 kts | 279° |
| 2026-04-25 12:06 | 48.11927 | 16.00288 | 15202 ft | 331 kts | 279° |
| 2026-04-25 12:07 | 48.12231 | 15.96856 | 15916 ft | 333 kts | 279° |
| 2026-04-25 12:07 | 48.12540 | 15.93409 | 16598 ft | 335 kts | 279° |
| 2026-04-25 12:07 | 48.12853 | 15.89925 | 17311 ft | 338 kts | 279° |
| 2026-04-25 12:07 | 48.13162 | 15.86428 | 17985 ft | 340 kts | 278° |
| 2026-04-25 12:08 | 48.13472 | 15.82906 | 18644 ft | 342 kts | 278° |
| 2026-04-25 12:08 | 48.13781 | 15.79353 | 19287 ft | 345 kts | 278° |
| 2026-04-25 12:08 | 48.14092 | 15.75775 | 19908 ft | 348 kts | 278° |
| 2026-04-25 12:08 | 48.14405 | 15.72181 | 20523 ft | 350 kts | 278° |
| 2026-04-25 12:09 | 48.14614 | 15.69780 | 20905 ft | 352 kts | 278° |
| 2026-04-25 12:09 | 48.15034 | 15.64927 | 21693 ft | 355 kts | 278° |
| 2026-04-25 12:09 | 48.15352 | 15.61247 | 22275 ft | 358 kts | 278° |
| 2026-04-25 12:09 | 48.15671 | 15.57532 | 22844 ft | 360 kts | 278° |
| 2026-04-25 12:10 | 48.15887 | 15.55015 | 23221 ft | 362 kts | 278° |
| 2026-04-25 12:10 | 48.16310 | 15.50038 | 23929 ft | 365 kts | 277° |
| 2026-04-25 12:10 | 48.16626 | 15.46251 | 24441 ft | 367 kts | 277° |
| 2026-04-25 12:10 | 48.16946 | 15.42428 | 24926 ft | 370 kts | 277° |
| 2026-04-25 12:11 | 48.17234 | 15.38596 | 25404 ft | 372 kts | 274° |
| 2026-04-25 12:11 | 48.17339 | 15.34704 | 25861 ft | 374 kts | 273° |
| 2026-04-25 12:11 | 48.17436 | 15.30795 | 26305 ft | 376 kts | 272° |
| 2026-04-25 12:11 | 48.17530 | 15.26869 | 26748 ft | 378 kts | 272° |
| 2026-04-25 12:12 | 48.17621 | 15.22975 | 27158 ft | 380 kts | 272° |
| 2026-04-25 12:12 | 48.17683 | 15.20299 | 27431 ft | 381 kts | 272° |
| 2026-04-25 12:12 | 48.17805 | 15.15020 | 27959 ft | 384 kts | 272° |
| 2026-04-25 12:12 | 48.17895 | 15.11017 | 28351 ft | 385 kts | 272° |
| 2026-04-25 12:13 | 48.17982 | 15.06991 | 28724 ft | 387 kts | 272° |
| 2026-04-25 12:13 | 48.18070 | 15.02937 | 29086 ft | 389 kts | 272° |
| 2026-04-25 12:13 | 48.18157 | 14.98887 | 29425 ft | 391 kts | 272° |
| 2026-04-25 12:13 | 48.18245 | 14.94797 | 29764 ft | 392 kts | 272° |
| 2026-04-25 12:14 | 48.18332 | 14.90743 | 30012 ft | 394 kts | 272° |
| 2026-04-25 12:14 | 48.18419 | 14.86644 | 30059 ft | 381 kts | 272° |
| 2026-04-25 12:14 | 48.18499 | 14.82764 | 30064 ft | 367 kts | 271° |
| 2026-04-25 12:14 | 48.18575 | 14.78974 | 30064 ft | 361 kts | 271° |
| 2026-04-25 12:15 | 48.18717 | 14.71477 | 30073 ft | 359 kts | 271° |
| 2026-04-25 12:15 | 48.18856 | 14.64048 | 30073 ft | 359 kts | 271° |
| 2026-04-25 12:16 | 48.18996 | 14.56541 | 30073 ft | 360 kts | 271° |
| 2026-04-25 12:16 | 48.19125 | 14.49037 | 30080 ft | 360 kts | 271° |
| 2026-04-25 12:17 | 48.19257 | 14.41517 | 30079 ft | 360 kts | 271° |
| 2026-04-25 12:17 | 48.19375 | 14.34049 | 30075 ft | 361 kts | 271° |
| 2026-04-25 12:18 | 48.19487 | 14.26525 | 30072 ft | 361 kts | 271° |
| 2026-04-25 12:18 | 48.19598 | 14.19000 | 30069 ft | 361 kts | 271° |
| 2026-04-25 12:19 | 48.19756 | 14.07759 | 30065 ft | 361 kts | 270° |
| 2026-04-25 12:20 | 48.19851 | 14.00225 | 30064 ft | 361 kts | 270° |
| 2026-04-25 12:20 | 48.19948 | 13.92700 | 30064 ft | 362 kts | 270° |
| 2026-04-25 12:21 | 48.20040 | 13.85162 | 30064 ft | 361 kts | 270° |
| 2026-04-25 12:21 | 48.20127 | 13.77633 | 30063 ft | 361 kts | 270° |
| 2026-04-25 12:22 | 48.20207 | 13.70105 | 30062 ft | 361 kts | 270° |
| 2026-04-25 12:22 | 48.20281 | 13.62574 | 30066 ft | 361 kts | 270° |
| 2026-04-25 12:23 | 48.20350 | 13.55036 | 30070 ft | 361 kts | 270° |
| 2026-04-25 12:23 | 48.20411 | 13.47565 | 30068 ft | 361 kts | 270° |
| 2026-04-25 12:24 | 48.20471 | 13.40045 | 30067 ft | 360 kts | 270° |
| 2026-04-25 12:24 | 48.20521 | 13.32523 | 30070 ft | 360 kts | 270° |
| 2026-04-25 12:25 | 48.20568 | 13.26284 | 30068 ft | 360 kts | 270° |
| 2026-04-25 12:25 | 48.20620 | 13.18779 | 30067 ft | 360 kts | 270° |
| 2026-04-25 12:26 | 48.20661 | 13.11274 | 30068 ft | 360 kts | 270° |
| 2026-04-25 12:26 | 48.20700 | 13.03748 | 30068 ft | 360 kts | 270° |
| 2026-04-25 12:27 | 48.20730 | 12.96232 | 30066 ft | 360 kts | 270° |
| 2026-04-25 12:27 | 48.20752 | 12.88760 | 30067 ft | 360 kts | 269° |
| 2026-04-25 12:28 | 48.20704 | 12.81245 | 30067 ft | 360 kts | 264° |
| 2026-04-25 12:28 | 48.20213 | 12.73770 | 30068 ft | 360 kts | 264° |
| 2026-04-25 12:29 | 48.19719 | 12.66286 | 30069 ft | 361 kts | 264° |
| 2026-04-25 12:29 | 48.19222 | 12.58794 | 30071 ft | 361 kts | 264° |
| 2026-04-25 12:30 | 48.18716 | 12.51292 | 30073 ft | 362 kts | 264° |
| 2026-04-25 12:30 | 48.18202 | 12.43778 | 30078 ft | 363 kts | 264° |
| 2026-04-25 12:31 | 48.17683 | 12.36252 | 30078 ft | 363 kts | 263° |
| 2026-04-25 12:31 | 48.17167 | 12.28775 | 30079 ft | 363 kts | 263° |
| 2026-04-25 12:32 | 48.16633 | 12.21249 | 30081 ft | 363 kts | 263° |
| 2026-04-25 12:32 | 48.16114 | 12.13708 | 30022 ft | 363 kts | 266° |
| 2026-04-25 12:32 | 48.16180 | 12.09959 | 29772 ft | 359 kts | 274° |
| 2026-04-25 12:33 | 48.16444 | 12.06243 | 29513 ft | 357 kts | 274° |
| 2026-04-25 12:33 | 48.16698 | 12.02556 | 29264 ft | 355 kts | 274° |
| 2026-04-25 12:33 | 48.16942 | 11.98871 | 29013 ft | 354 kts | 274° |
| 2026-04-25 12:33 | 48.17179 | 11.95210 | 28762 ft | 353 kts | 274° |
| 2026-04-25 12:34 | 48.17412 | 11.91544 | 28511 ft | 352 kts | 274° |
| 2026-04-25 12:34 | 48.17644 | 11.87893 | 28259 ft | 351 kts | 274° |
| 2026-04-25 12:34 | 48.17877 | 11.84254 | 28009 ft | 350 kts | 274° |
| 2026-04-25 12:34 | 48.18064 | 11.81858 | 27842 ft | 350 kts | 277° |
| 2026-04-25 12:35 | 48.18788 | 11.77144 | 27511 ft | 350 kts | 282° |
| 2026-04-25 12:35 | 48.19376 | 11.73630 | 27261 ft | 348 kts | 282° |
| 2026-04-25 12:35 | 48.19967 | 11.70090 | 27008 ft | 348 kts | 282° |
| 2026-04-25 12:35 | 48.20551 | 11.66578 | 26757 ft | 347 kts | 281° |
| 2026-04-25 12:36 | 48.21131 | 11.63075 | 26505 ft | 346 kts | 281° |
| 2026-04-25 12:36 | 48.21711 | 11.59571 | 26257 ft | 344 kts | 281° |
| 2026-04-25 12:36 | 48.22285 | 11.56096 | 26005 ft | 343 kts | 281° |
| 2026-04-25 12:36 | 48.22851 | 11.52662 | 25754 ft | 342 kts | 281° |
| 2026-04-25 12:37 | 48.23415 | 11.49220 | 25505 ft | 341 kts | 281° |
| 2026-04-25 12:37 | 48.23980 | 11.45765 | 25254 ft | 339 kts | 281° |
| 2026-04-25 12:37 | 48.24539 | 11.42331 | 25001 ft | 339 kts | 281° |
| 2026-04-25 12:37 | 48.25097 | 11.38895 | 24766 ft | 338 kts | 281° |
| 2026-04-25 12:38 | 48.25664 | 11.35479 | 24502 ft | 337 kts | 284° |
| 2026-04-25 12:38 | 48.26518 | 11.32203 | 24251 ft | 339 kts | 294° |
| 2026-04-25 12:38 | 48.27773 | 11.29192 | 23999 ft | 341 kts | 304° |
| 2026-04-25 12:38 | 48.29368 | 11.26533 | 23748 ft | 343 kts | 310° |
| 2026-04-25 12:39 | 48.31032 | 11.23975 | 23497 ft | 342 kts | 310° |
| 2026-04-25 12:39 | 48.32686 | 11.21422 | 23248 ft | 340 kts | 310° |
| 2026-04-25 12:39 | 48.34329 | 11.18874 | 22995 ft | 338 kts | 310° |
| 2026-04-25 12:39 | 48.35961 | 11.16339 | 22737 ft | 336 kts | 310° |
| 2026-04-25 12:40 | 48.37585 | 11.13813 | 22489 ft | 335 kts | 310° |
| 2026-04-25 12:40 | 48.39207 | 11.11291 | 22244 ft | 333 kts | 310° |
| 2026-04-25 12:40 | 48.40813 | 11.08792 | 22093 ft | 332 kts | 310° |
| 2026-04-25 12:40 | 48.42397 | 11.06327 | 22104 ft | 332 kts | 310° |
| 2026-04-25 12:41 | 48.44006 | 11.03827 | 22110 ft | 332 kts | 310° |
| 2026-04-25 12:41 | 48.45611 | 11.01326 | 22107 ft | 332 kts | 310° |
| 2026-04-25 12:41 | 48.47214 | 10.98821 | 22108 ft | 332 kts | 310° |
| 2026-04-25 12:41 | 48.48815 | 10.96313 | 22110 ft | 331 kts | 310° |
| 2026-04-25 12:42 | 48.50410 | 10.93801 | 22094 ft | 332 kts | 310° |
| 2026-04-25 12:42 | 48.51467 | 10.92122 | 21924 ft | 332 kts | 310° |
| 2026-04-25 12:42 | 48.53579 | 10.88748 | 21588 ft | 329 kts | 310° |
| 2026-04-25 12:42 | 48.55141 | 10.86238 | 21337 ft | 328 kts | 310° |
| 2026-04-25 12:43 | 48.56696 | 10.83739 | 21086 ft | 326 kts | 310° |
| 2026-04-25 12:43 | 48.58232 | 10.81276 | 20839 ft | 325 kts | 310° |
| 2026-04-25 12:43 | 48.61334 | 10.76328 | 20337 ft | 323 kts | 310° |
| 2026-04-25 12:44 | 48.62877 | 10.73884 | 20086 ft | 321 kts | 310° |
| 2026-04-25 12:44 | 48.64418 | 10.71440 | 19834 ft | 320 kts | 309° |
| 2026-04-25 12:44 | 48.66183 | 10.65554 | 19216 ft | 308 kts | 272° |
| 2026-04-25 12:45 | 48.66029 | 10.62332 | 18806 ft | 307 kts | 262° |
| 2026-04-25 12:45 | 48.65736 | 10.59133 | 18404 ft | 306 kts | 262° |
| 2026-04-25 12:45 | 48.65141 | 10.52775 | 17644 ft | 304 kts | 262° |
| 2026-04-25 12:46 | 48.64847 | 10.49626 | 17276 ft | 302 kts | 262° |
| 2026-04-25 12:46 | 48.64553 | 10.46480 | 16908 ft | 301 kts | 262° |
| 2026-04-25 12:46 | 48.64260 | 10.43355 | 16549 ft | 299 kts | 263° |
| 2026-04-25 12:46 | 48.63969 | 10.40243 | 16199 ft | 298 kts | 262° |
| 2026-04-25 12:47 | 48.63681 | 10.37149 | 15856 ft | 297 kts | 262° |
| 2026-04-25 12:47 | 48.63390 | 10.34064 | 15512 ft | 295 kts | 262° |
| 2026-04-25 12:47 | 48.63099 | 10.30993 | 15165 ft | 294 kts | 262° |
| 2026-04-25 12:47 | 48.62808 | 10.27932 | 14818 ft | 294 kts | 262° |
| 2026-04-25 12:48 | 48.62523 | 10.24925 | 14491 ft | 292 kts | 262° |
| 2026-04-25 12:48 | 48.62236 | 10.21901 | 14161 ft | 291 kts | 262° |
| 2026-04-25 12:48 | 48.61948 | 10.18880 | 13802 ft | 290 kts | 262° |
| 2026-04-25 12:48 | 48.61659 | 10.15864 | 13477 ft | 289 kts | 262° |
| 2026-04-25 12:49 | 48.61372 | 10.12877 | 13130 ft | 287 kts | 262° |
| 2026-04-25 12:49 | 48.61083 | 10.09859 | 12749 ft | 286 kts | 262° |
| 2026-04-25 12:49 | 48.60801 | 10.06932 | 12407 ft | 285 kts | 262° |
| 2026-04-25 12:49 | 48.60517 | 10.03975 | 12067 ft | 283 kts | 262° |
| 2026-04-25 12:50 | 48.60234 | 10.01034 | 11698 ft | 282 kts | 262° |
| 2026-04-25 12:50 | 48.59951 | 9.98108 | 11437 ft | 282 kts | 262° |
| 2026-04-25 12:50 | 48.59668 | 9.95180 | 11201 ft | 282 kts | 262° |
| 2026-04-25 12:50 | 48.59379 | 9.92237 | 11098 ft | 281 kts | 262° |
| 2026-04-25 12:51 | 48.59089 | 9.89320 | 11115 ft | 282 kts | 262° |
| 2026-04-25 12:51 | 48.58799 | 9.86392 | 11102 ft | 282 kts | 262° |
| 2026-04-25 12:51 | 48.58512 | 9.83467 | 10816 ft | 279 kts | 262° |
| 2026-04-25 12:51 | 48.58227 | 9.80563 | 10433 ft | 279 kts | 262° |
| 2026-04-25 12:52 | 48.57945 | 9.77672 | 10077 ft | 277 kts | 262° |
| 2026-04-25 12:52 | 48.57663 | 9.74801 | 9686 ft | 277 kts | 262° |
| 2026-04-25 12:52 | 48.57378 | 9.71927 | 9323 ft | 276 kts | 262° |
| 2026-04-25 12:52 | 48.57093 | 9.69074 | 8937 ft | 274 kts | 262° |
| 2026-04-25 12:53 | 48.56810 | 9.66266 | 8514 ft | 274 kts | 262° |
| 2026-04-25 12:53 | 48.56522 | 9.63430 | 8118 ft | 272 kts | 262° |
| 2026-04-25 12:53 | 48.56238 | 9.60611 | 7774 ft | 271 kts | 262° |
| 2026-04-25 12:53 | 48.55955 | 9.57813 | 7376 ft | 269 kts | 262° |
| 2026-04-25 12:54 | 48.55674 | 9.55030 | 7121 ft | 267 kts | 262° |
| 2026-04-25 12:54 | 48.55399 | 9.52245 | 7108 ft | 269 kts | 263° |
| 2026-04-25 12:54 | 48.55174 | 9.49438 | 7110 ft | 270 kts | 264° |
| 2026-04-25 12:54 | 48.54960 | 9.46627 | 7109 ft | 270 kts | 264° |
| 2026-04-25 12:55 | 48.54742 | 9.43818 | 7111 ft | 270 kts | 264° |
| 2026-04-25 12:55 | 48.54599 | 9.41955 | 7106 ft | 270 kts | 264° |
| 2026-04-25 12:55 | 48.54310 | 9.38192 | 7107 ft | 270 kts | 264° |
| 2026-04-25 12:55 | 48.54095 | 9.35384 | 7094 ft | 269 kts | 264° |
| 2026-04-25 12:56 | 48.53882 | 9.32597 | 6721 ft | 266 kts | 264° |
| 2026-04-25 12:56 | 48.53667 | 9.29822 | 6285 ft | 266 kts | 264° |
| 2026-04-25 12:56 | 48.53454 | 9.27062 | 5902 ft | 265 kts | 264° |
| 2026-04-25 12:56 | 48.53240 | 9.24307 | 5519 ft | 263 kts | 264° |
| 2026-04-25 12:57 | 48.53028 | 9.21604 | 5114 ft | 261 kts | 264° |
| 2026-04-25 12:57 | 48.52812 | 9.18866 | 4993 ft | 261 kts | 264° |
| 2026-04-25 12:57 | 48.52594 | 9.16114 | 5007 ft | 264 kts | 264° |
| 2026-04-25 12:57 | 48.52437 | 9.13367 | 5005 ft | 263 kts | 274° |
| 2026-04-25 12:58 | 48.52724 | 9.10662 | 4813 ft | 260 kts | 283° |
| 2026-04-25 12:58 | 48.53137 | 9.08009 | 4395 ft | 259 kts | 284° |
| 2026-04-25 12:58 | 48.53562 | 9.05366 | 4041 ft | 257 kts | 284° |
| 2026-04-25 12:58 | 48.53979 | 9.02781 | 3998 ft | 259 kts | 284° |
| 2026-04-25 12:59 | 48.54404 | 9.00131 | 4006 ft | 260 kts | 284° |
| 2026-04-25 12:59 | 48.54831 | 8.97480 | 4006 ft | 260 kts | 284° |
| 2026-04-25 12:59 | 48.55361 | 8.94870 | 3997 ft | 259 kts | 298° |
| 2026-04-25 12:59 | 48.56549 | 8.92857 | 4009 ft | 261 kts | 327° |
| 2026-04-25 13:00 | 48.58260 | 8.91964 | 4002 ft | 263 kts | 355° |
| 2026-04-25 13:00 | 48.61559 | 8.94099 | 4014 ft | 269 kts | 41° |
| 2026-04-25 13:00 | 48.62891 | 8.96056 | 4003 ft | 271 kts | 44° |
| 2026-04-25 13:01 | 48.64164 | 8.98174 | 3999 ft | 270 kts | 55° |
| 2026-04-25 13:01 | 48.64912 | 9.00741 | 3876 ft | 272 kts | 72° |
| 2026-04-25 13:01 | 48.65427 | 9.03471 | 3543 ft | 270 kts | 73° |
| 2026-04-25 13:01 | 48.65934 | 9.06197 | 3193 ft | 265 kts | 73° |
| 2026-04-25 13:02 | 48.66421 | 9.08752 | 2849 ft | 241 kts | 74° |
| 2026-04-25 13:02 | 48.66866 | 9.11065 | 2549 ft | 217 kts | 74° |
| 2026-04-25 13:02 | 48.67267 | 9.13162 | 2271 ft | 199 kts | 72° |
| 2026-04-25 13:02 | 48.67634 | 9.15086 | 2057 ft | 184 kts | 72° |
| 2026-04-25 13:03 | 48.67980 | 9.16906 | 1797 ft | 176 kts | 72° |
| 2026-04-25 13:03 | 48.68325 | 9.18711 | 1764 ft | 183 kts | 72° |
| 2026-04-25 13:03 | 48.68670 | 9.20530 | 2757 ft | 180 kts | 73° |
| 2026-04-25 13:03 | 48.68996 | 9.22360 | 3462 ft | 181 kts | 72° |
| 2026-04-25 13:04 | 48.69344 | 9.24247 | 3935 ft | 189 kts | 76° |
| 2026-04-25 13:04 | 48.69361 | 9.26273 | 4323 ft | 204 kts | 101° |
| 2026-04-25 13:04 | 48.68714 | 9.28273 | 4343 ft | 218 kts | 134° |
| 2026-04-25 13:04 | 48.67417 | 9.29422 | 4347 ft | 225 kts | 169° |
| 2026-04-25 13:05 | 48.65776 | 9.29584 | 4348 ft | 247 kts | 182° |
| 2026-04-25 13:05 | 48.63992 | 9.29291 | 4354 ft | 264 kts | 200° |
| 2026-04-25 13:05 | 48.62446 | 9.27841 | 4364 ft | 264 kts | 229° |
| 2026-04-25 13:05 | 48.61529 | 9.25468 | 4357 ft | 263 kts | 251° |
| 2026-04-25 13:06 | 48.60951 | 9.22850 | 4575 ft | 263 kts | 253° |
| 2026-04-25 13:06 | 48.60411 | 9.20230 | 4820 ft | 264 kts | 254° |
| 2026-04-25 13:06 | 48.59869 | 9.17576 | 4947 ft | 265 kts | 254° |
| 2026-04-25 13:06 | 48.59327 | 9.14911 | 4973 ft | 265 kts | 254° |
| 2026-04-25 13:07 | 48.58784 | 9.12252 | 4979 ft | 265 kts | 254° |
| 2026-04-25 13:07 | 48.58242 | 9.09593 | 4981 ft | 265 kts | 254° |
| 2026-04-25 13:07 | 48.57700 | 9.06928 | 4981 ft | 265 kts | 254° |
| 2026-04-25 13:07 | 48.57156 | 9.04264 | 4981 ft | 265 kts | 254° |
| 2026-04-25 13:08 | 48.56613 | 9.01602 | 4987 ft | 265 kts | 253° |
| 2026-04-25 13:08 | 48.56255 | 8.99848 | 4991 ft | 265 kts | 254° |
| 2026-04-25 13:08 | 48.55712 | 8.97184 | 4989 ft | 265 kts | 254° |
| 2026-04-25 13:08 | 48.55171 | 8.94529 | 4983 ft | 265 kts | 254° |
| 2026-04-25 13:09 | 48.54787 | 8.91818 | 4989 ft | 264 kts | 271° |
| 2026-04-25 13:09 | 48.55218 | 8.89157 | 4995 ft | 264 kts | 299° |
| 2026-04-25 13:09 | 48.56436 | 8.87153 | 4987 ft | 253 kts | 327° |
| 2026-04-25 13:09 | 48.58000 | 8.86418 | 4983 ft | 224 kts | 360° |
| 2026-04-25 13:10 | 48.59441 | 8.87075 | 4999 ft | 219 kts | 33° |
| 2026-04-25 13:10 | 48.60607 | 8.88574 | 5008 ft | 221 kts | 43° |
| 2026-04-25 13:10 | 48.61675 | 8.90169 | 4803 ft | 214 kts | 44° |
| 2026-04-25 13:10 | 48.62682 | 8.91709 | 4596 ft | 200 kts | 44° |
| 2026-04-25 13:11 | 48.63466 | 8.93410 | 4212 ft | 198 kts | 68° |
| 2026-04-25 13:11 | 48.63888 | 8.95499 | 3995 ft | 221 kts | 73° |
| 2026-04-25 13:11 | 48.64315 | 8.97756 | 3982 ft | 215 kts | 73° |
| 2026-04-25 13:11 | 48.64717 | 8.99860 | 3950 ft | 204 kts | 72° |
| 2026-04-25 13:12 | 48.65110 | 9.01904 | 3720 ft | 199 kts | 73° |
| 2026-04-25 13:12 | 48.65489 | 9.03881 | 3482 ft | 192 kts | 72° |
| 2026-04-25 13:12 | 48.65856 | 9.05789 | 3254 ft | 187 kts | 72° |
| 2026-04-25 13:12 | 48.66099 | 9.07057 | 3106 ft | 185 kts | 73° |
| 2026-04-25 13:13 | 48.66582 | 9.09582 | 2748 ft | 190 kts | 75° |
| 2026-04-25 13:13 | 48.66950 | 9.11502 | 2494 ft | 188 kts | 73° |
| 2026-04-25 13:13 | 48.67307 | 9.13372 | 2244 ft | 177 kts | 72° |
| 2026-04-25 13:13 | 48.67625 | 9.15044 | 2026 ft | 155 kts | 72° |
| 2026-04-25 13:14 | 48.67933 | 9.16653 | 1820 ft | 158 kts | 72° |
| 2026-04-25 13:14 | 48.68222 | 9.18175 | 1618 ft | 145 kts | 72° |
| 2026-04-25 13:14 | 48.68494 | 9.19611 | 1427 ft | 141 kts | 73° |
| 2026-04-25 13:14 | 48.68763 | 9.21017 | 1270 ft | 132 kts | 73° |
| 2026-04-25 13:15 | 48.68976 | 9.22118 | 1248 ft | 84 kts | 74° |
| 2026-04-25 13:15 | 48.69089 | 9.22723 | 1222 ft | 35 kts | 74° |
| 2026-04-25 13:15 | 48.69194 | 9.22998 | 1217 ft | 27 kts | 45° |
| 2026-04-25 13:15 | 48.69282 | 9.23124 | 1217 ft | 7 kts | 41° |
| 2026-04-25 13:16 | 48.69290 | 9.23133 | 1217 ft | 2 kts | 38° |
| 2026-04-25 13:16 | 48.69295 | 9.23138 | 1217 ft | 0 kts | 36° |
| 2026-04-25 13:17 | 48.69295 | 9.23139 | 1218 ft | 1 kts | 36° |
| 2026-04-25 13:17 | 48.69343 | 9.23162 | 1219 ft | 8 kts | 357° |
| 2026-04-25 13:17 | 48.69386 | 9.23137 | 1221 ft | 7 kts | 322° |
| 2026-04-25 13:17 | 48.69412 | 9.23052 | 1225 ft | 10 kts | 265° |
| 2026-04-25 13:18 | 48.69394 | 9.22967 | 1226 ft | 7 kts | 257° |
| 2026-04-25 13:18 | 48.69383 | 9.22898 | 1228 ft | 12 kts | 256° |
| 2026-04-25 13:18 | 48.69362 | 9.22781 | 1230 ft | 10 kts | 254° |
| 2026-04-25 13:18 | 48.69344 | 9.22690 | 1232 ft | 9 kts | 253° |
| 2026-04-25 13:19 | 48.69323 | 9.22582 | 1243 ft | 9 kts | 254° |
| 2026-04-25 13:19 | 48.69298 | 9.22449 | 1237 ft | 18 kts | 254° |
| 2026-04-25 13:19 | 48.69263 | 9.22266 | 1255 ft | 18 kts | 253° |
| 2026-04-25 13:19 | 48.69240 | 9.22148 | 1244 ft | 17 kts | 253° |
| 2026-04-25 13:20 | 48.69199 | 9.21928 | 1257 ft | 15 kts | 255° |
| 2026-04-25 13:20 | 48.69173 | 9.21782 | 1255 ft | 13 kts | 253° |
| 2026-04-25 13:20 | 48.69148 | 9.21658 | 1266 ft | 14 kts | 254° |
| 2026-04-25 13:20 | 48.69122 | 9.21522 | 1265 ft | 12 kts | 254° |
| 2026-04-25 13:21 | 48.69092 | 9.21363 | 1270 ft | 18 kts | 255° |
| 2026-04-25 13:21 | 48.69058 | 9.21184 | 1270 ft | 17 kts | 253° |
| 2026-04-25 13:21 | 48.69025 | 9.21013 | 1271 ft | 16 kts | 254° |
| 2026-04-25 13:21 | 48.68995 | 9.20855 | 1274 ft | 15 kts | 254° |
| 2026-04-25 13:22 | 48.68970 | 9.20718 | 1280 ft | 12 kts | 253° |
| 2026-04-25 13:22 | 48.68941 | 9.20568 | 1282 ft | 16 kts | 254° |
| 2026-04-25 13:22 | 48.68912 | 9.20412 | 1287 ft | 14 kts | 253° |
| 2026-04-25 13:23 | 48.68860 | 9.20140 | 1292 ft | 16 kts | 254° |
| 2026-04-25 13:23 | 48.68822 | 9.19982 | 1295 ft | 16 kts | 250° |
| 2026-04-25 13:23 | 48.68862 | 9.19887 | 1300 ft | 9 kts | 338° |
| 2026-04-25 13:23 | 48.68890 | 9.19814 | 1304 ft | 12 kts | 261° |
| 2026-04-25 13:24 | 48.68869 | 9.19705 | 1308 ft | 9 kts | 254° |
| 2026-04-25 13:24 | 48.68856 | 9.19633 | 1309 ft | 8 kts | 254° |
| 2026-04-25 13:24 | 48.68840 | 9.19550 | 1310 ft | 9 kts | 253° |
| 2026-04-25 13:24 | 48.68827 | 9.19469 | 1312 ft | 10 kts | 273° |
| 2026-04-25 13:25 | 48.68863 | 9.19442 | 1314 ft | 4 kts | 348° |
| 2026-04-25 13:25 | 48.68878 | 9.19436 | 1315 ft | 3 kts | 343° |
| 2026-04-25 13:25 | 48.68892 | 9.19430 | 1315 ft | 0 kts | 344° |
| 2026-04-25 13:25 | 48.68897 | 9.19428 | 1315 ft | 0 kts | 344° |